sensor_id;sensor_type;location;lat;lon;timestamp;pressure;altitude;pressure_sealevel;temperature;humidity
68508;BME280;55510;49.560;19.090;2022-11-21T12:08:22;95445.19;;;3.61;82.90
68508;BME280;55510;49.560;19.090;2022-11-21T12:11:29;95433.19;;;3.66;82.36
68508;BME280;55510;49.560;19.090;2022-11-21T12:21:52;95433.78;;;3.68;80.71
68508;BME280;55510;49.560;19.090;2022-11-21T12:24:53;95436.94;;;3.58;81.42
68508;BME280;55510;49.560;19.090;2022-11-21T12:27:54;95434.34;;;3.39;82.99
68508;BME280;55510;49.560;19.090;2022-11-21T12:38:25;95443.47;;;3.18;83.69
68508;BME280;55510;49.560;19.090;2022-11-21T12:52:18;95430.97;;;3.13;85.69
68508;BME280;55510;49.560;19.090;2022-11-21T12:55:40;95425.34;;;3.28;84.94
68508;BME280;55510;49.560;19.090;2022-11-21T12:58:43;95432.50;;;3.40;85.76
68508;BME280;55510;49.560;19.090;2022-11-21T13:05:03;95436.28;;;3.44;84.27
68508;BME280;55510;49.560;19.090;2022-11-21T13:08:15;95433.97;;;3.36;83.57
68508;BME280;55510;49.560;19.090;2022-11-21T13:15:07;95441.78;;;3.24;84.10
68508;BME280;55510;49.560;19.090;2022-11-21T13:18:35;95439.50;;;3.09;84.78
68508;BME280;55510;49.560;19.090;2022-11-21T13:21:46;95439.50;;;3.09;84.68
68508;BME280;55510;49.560;19.090;2022-11-21T13:27:48;95427.41;;;3.08;84.65
68508;BME280;55510;49.560;19.090;2022-11-21T13:30:55;95424.94;;;3.13;84.73
68508;BME280;55510;49.560;19.090;2022-11-21T13:33:57;95426.53;;;3.14;84.96
68508;BME280;55510;49.560;19.090;2022-11-21T13:37:02;95428.59;;;3.12;84.51
68508;BME280;55510;49.560;19.090;2022-11-21T13:43:26;95427.25;;;3.02;85.34
68508;BME280;55510;49.560;19.090;2022-11-21T13:50:33;95423.59;;;3.03;84.98
68508;BME280;55510;49.560;19.090;2022-11-21T14:07:30;95430.91;;;2.83;87.88
68508;BME280;55510;49.560;19.090;2022-11-21T14:10:32;95434.56;;;2.82;87.69
68508;BME280;55510;49.560;19.090;2022-11-21T14:13:36;95435.78;;;2.79;88.34
68508;BME280;55510;49.560;19.090;2022-11-21T14:16:45;95433.16;;;2.79;88.37
68508;BME280;55510;49.560;19.090;2022-11-21T14:19:51;95435.00;;;2.79;88.11
68508;BME280;55510;49.560;19.090;2022-11-21T14:26:14;95442.28;;;2.77;87.14
68508;BME280;55510;49.560;19.090;2022-11-21T14:29:41;95431.84;;;2.70;87.84
68508;BME280;55510;49.560;19.090;2022-11-21T14:32:42;95430.28;;;2.62;88.05
68508;BME280;55510;49.560;19.090;2022-11-21T14:35:47;95434.38;;;2.58;88.58
68508;BME280;55510;49.560;19.090;2022-11-21T14:38:50;95435.19;;;2.58;89.25
68508;BME280;55510;49.560;19.090;2022-11-21T14:41:53;95437.22;;;2.56;89.35
68508;BME280;55510;49.560;19.090;2022-11-21T14:45:14;95435.97;;;2.59;88.62
68508;BME280;55510;49.560;19.090;2022-11-21T14:48:24;95443.69;;;2.54;88.77
68508;BME280;55510;49.560;19.090;2022-11-21T14:51:25;95446.31;;;2.54;89.25
68508;BME280;55510;49.560;19.090;2022-11-21T14:54:41;95445.72;;;2.52;89.46
68508;BME280;55510;49.560;19.090;2022-11-21T14:57:43;95449.38;;;2.51;89.46
68508;BME280;55510;49.560;19.090;2022-11-21T15:01:06;95444.34;;;2.49;90.15
68508;BME280;55510;49.560;19.090;2022-11-21T15:04:25;95444.56;;;2.47;90.01
68508;BME280;55510;49.560;19.090;2022-11-21T15:07:33;95444.22;;;2.44;89.61
68508;BME280;55510;49.560;19.090;2022-11-21T15:10:35;95446.00;;;2.43;90.17
68508;BME280;55510;49.560;19.090;2022-11-21T15:13:36;95440.97;;;2.42;90.35
68508;BME280;55510;49.560;19.090;2022-11-21T15:16:37;95434.09;;;2.41;90.34
68508;BME280;55510;49.560;19.090;2022-11-21T15:19:41;95431.13;;;2.37;89.85
68508;BME280;55510;49.560;19.090;2022-11-21T15:22:41;95421.63;;;2.36;90.46
68508;BME280;55510;49.560;19.090;2022-11-21T15:25:44;95432.56;;;2.33;89.67
68508;BME280;55510;49.560;19.090;2022-11-21T15:28:53;95434.59;;;2.31;90.39
68508;BME280;55510;49.560;19.090;2022-11-21T15:32:08;95434.59;;;2.31;90.89
68508;BME280;55510;49.560;19.090;2022-11-21T15:41:45;95429.56;;;2.29;91.15
68508;BME280;55510;49.560;19.090;2022-11-21T15:45:00;95431.16;;;2.30;91.09
68508;BME280;55510;49.560;19.090;2022-11-21T15:48:00;95430.97;;;2.32;91.12
68508;BME280;55510;49.560;19.090;2022-11-21T15:51:01;95426.34;;;2.27;91.46
68508;BME280;55510;49.560;19.090;2022-11-21T15:54:03;95432.25;;;2.23;91.68
68508;BME280;55510;49.560;19.090;2022-11-21T15:57:04;95430.66;;;2.22;91.81
68508;BME280;55510;49.560;19.090;2022-11-21T16:00:05;95417.13;;;2.18;91.83
68508;BME280;55510;49.560;19.090;2022-11-21T16:03:07;95417.56;;;2.15;92.09
68508;BME280;55510;49.560;19.090;2022-11-21T16:06:08;95416.97;;;2.13;92.30
68508;BME280;55510;49.560;19.090;2022-11-21T16:09:09;95414.53;;;2.11;92.57
68508;BME280;55510;49.560;19.090;2022-11-21T16:12:10;95421.84;;;2.09;92.54
68508;BME280;55510;49.560;19.090;2022-11-21T16:15:11;95421.47;;;2.06;92.82
68508;BME280;55510;49.560;19.090;2022-11-21T16:18:11;95418.63;;;2.07;93.39
68508;BME280;55510;49.560;19.090;2022-11-21T16:21:12;95407.53;;;2.05;93.50
68508;BME280;55510;49.560;19.090;2022-11-21T16:24:13;95413.00;;;2.03;93.94
68508;BME280;55510;49.560;19.090;2022-11-21T16:27:14;95412.19;;;2.03;94.25
68508;BME280;55510;49.560;19.090;2022-11-21T16:30:14;95415.84;;;2.02;94.44
68508;BME280;55510;49.560;19.090;2022-11-21T16:33:15;95422.69;;;2.03;94.35
68508;BME280;55510;49.560;19.090;2022-11-21T16:36:24;95418.47;;;2.02;94.66
68508;BME280;55510;49.560;19.090;2022-11-21T16:39:25;95408.97;;;2.01;94.54
68508;BME280;55510;49.560;19.090;2022-11-21T16:42:25;95417.47;;;1.96;94.55
68508;BME280;55510;49.560;19.090;2022-11-21T16:45:26;95415.28;;;1.93;95.42
68508;BME280;55510;49.560;19.090;2022-11-21T16:48:26;95423.97;;;1.94;95.63
68508;BME280;55510;49.560;19.090;2022-11-21T16:51:28;95418.13;;;1.92;95.13
68508;BME280;55510;49.560;19.090;2022-11-21T16:54:29;95424.41;;;1.91;95.85
68508;BME280;55510;49.560;19.090;2022-11-21T16:57:32;95419.16;;;1.91;95.59
68508;BME280;55510;49.560;19.090;2022-11-21T17:00:33;95421.34;;;1.94;95.96
68508;BME280;55510;49.560;19.090;2022-11-21T17:03:34;95418.72;;;1.94;96.01
68508;BME280;55510;49.560;19.090;2022-11-21T17:06:34;95420.34;;;1.95;95.70
68508;BME280;55510;49.560;19.090;2022-11-21T17:09:35;95419.31;;;1.96;96.00
68508;BME280;55510;49.560;19.090;2022-11-21T17:12:41;95413.06;;;1.97;95.92
68508;BME280;55510;49.560;19.090;2022-11-21T17:15:42;95414.66;;;1.98;95.97
68508;BME280;55510;49.560;19.090;2022-11-21T17:18:42;95420.50;;;2.00;95.98
68508;BME280;55510;49.560;19.090;2022-11-21T17:21:43;95419.47;;;2.01;96.35
68508;BME280;55510;49.560;19.090;2022-11-21T17:24:44;95422.91;;;2.01;96.20
68508;BME280;55510;49.560;19.090;2022-11-21T17:27:44;95421.91;;;2.02;96.64
68508;BME280;55510;49.560;19.090;2022-11-21T17:30:45;95429.53;;;2.04;96.38
68508;BME280;55510;49.560;19.090;2022-11-21T17:33:46;95427.50;;;2.06;96.88
68508;BME280;55510;49.560;19.090;2022-11-21T17:36:50;95435.63;;;2.05;96.67
68508;BME280;55510;49.560;19.090;2022-11-21T17:39:51;95434.59;;;2.06;96.46
68508;BME280;55510;49.560;19.090;2022-11-21T17:42:52;95431.16;;;2.05;97.06
68508;BME280;55510;49.560;19.090;2022-11-21T17:46:00;95433.34;;;2.08;96.86
68508;BME280;55510;49.560;19.090;2022-11-21T17:49:01;95438.81;;;2.07;96.89
68508;BME280;55510;49.560;19.090;2022-11-21T17:52:03;95432.75;;;2.06;96.82
68508;BME280;55510;49.560;19.090;2022-11-21T17:55:05;95431.16;;;2.05;96.44
68508;BME280;55510;49.560;19.090;2022-11-21T17:58:05;95429.94;;;2.08;97.01
68508;BME280;55510;49.560;19.090;2022-11-21T18:01:08;95429.13;;;2.07;96.36
68508;BME280;55510;49.560;19.090;2022-11-21T18:04:11;95430.94;;;2.07;96.88
68508;BME280;55510;49.560;19.090;2022-11-21T18:07:13;95434.00;;;2.03;96.95
68508;BME280;55510;49.560;19.090;2022-11-21T18:10:14;95429.53;;;2.04;97.47
68508;BME280;55510;49.560;19.090;2022-11-21T18:13:15;95428.75;;;2.03;97.64
68508;BME280;55510;49.560;19.090;2022-11-21T18:16:20;95430.78;;;2.01;97.75
68508;BME280;55510;49.560;19.090;2022-11-21T18:19:22;95429.19;;;2.00;98.56
68508;BME280;55510;49.560;19.090;2022-11-21T18:22:23;95432.00;;;1.99;99.22
68508;BME280;55510;49.560;19.090;2022-11-21T18:25:24;95434.84;;;1.97;99.27
68508;BME280;55510;49.560;19.090;2022-11-21T18:28:24;95437.69;;;1.96;99.66
68508;BME280;55510;49.560;19.090;2022-11-21T18:31:27;95429.22;;;1.94;100.00
68508;BME280;55510;49.560;19.090;2022-11-21T18:34:29;95428.41;;;1.93;100.00
68508;BME280;55510;49.560;19.090;2022-11-21T18:37:32;95426.78;;;1.92;100.00
68508;BME280;55510;49.560;19.090;2022-11-21T18:40:33;95426.78;;;1.92;100.00
68508;BME280;55510;49.560;19.090;2022-11-21T18:43:33;95422.94;;;1.95;100.00
68508;BME280;55510;49.560;19.090;2022-11-21T18:46:35;95421.94;;;1.96;100.00
68508;BME280;55510;49.560;19.090;2022-11-21T18:49:36;95420.09;;;1.96;100.00
68508;BME280;55510;49.560;19.090;2022-11-21T18:52:37;95428.78;;;1.97;100.00
68508;BME280;55510;49.560;19.090;2022-11-21T18:55:37;95429.59;;;1.97;100.00
68508;BME280;55510;49.560;19.090;2022-11-21T18:58:40;95434.63;;;1.99;100.00
68508;BME280;55510;49.560;19.090;2022-11-21T19:01:41;95436.25;;;2.00;99.81
68508;BME280;55510;49.560;19.090;2022-11-21T19:04:42;95432.81;;;1.99;100.00
68508;BME280;55510;49.560;19.090;2022-11-21T19:07:43;95432.00;;;1.99;99.90
68508;BME280;55510;49.560;19.090;2022-11-21T19:10:44;95437.25;;;1.99;100.00
68508;BME280;55510;49.560;19.090;2022-11-21T19:13:45;95434.63;;;1.99;99.65
68508;BME280;55510;49.560;19.090;2022-11-21T19:16:46;95434.63;;;1.99;100.00
68508;BME280;55510;49.560;19.090;2022-11-21T19:19:46;95435.22;;;2.01;99.95
68508;BME280;55510;49.560;19.090;2022-11-21T19:22:47;95439.25;;;2.03;99.47
68508;BME280;55510;49.560;19.090;2022-11-21T19:25:48;95445.09;;;2.06;98.75
68508;BME280;55510;49.560;19.090;2022-11-21T19:28:49;95449.53;;;2.05;99.14
68508;BME280;55510;49.560;19.090;2022-11-21T19:31:49;95454.78;;;2.05;99.02
68508;BME280;55510;49.560;19.090;2022-11-21T19:34:50;95455.00;;;2.03;98.30
68508;BME280;55510;49.560;19.090;2022-11-21T19:37:51;95454.00;;;2.05;98.95
68508;BME280;55510;49.560;19.090;2022-11-21T19:40:51;95460.03;;;2.05;98.96
68508;BME280;55510;49.560;19.090;2022-11-21T19:44:11;95464.25;;;2.06;99.25
68508;BME280;55510;49.560;19.090;2022-11-21T19:47:12;95467.47;;;2.08;99.30
68508;BME280;55510;49.560;19.090;2022-11-21T19:50:12;95459.00;;;2.06;99.15
68508;BME280;55510;49.560;19.090;2022-11-21T19:53:13;95471.13;;;2.07;98.75
68508;BME280;55510;49.560;19.090;2022-11-21T19:56:16;95470.31;;;2.07;98.58
68508;BME280;55510;49.560;19.090;2022-11-21T19:59:17;95480.22;;;2.05;97.91
68508;BME280;55510;49.560;19.090;2022-11-21T20:02:19;95473.97;;;2.06;98.17
68508;BME280;55510;49.560;19.090;2022-11-21T20:05:21;95476.38;;;2.07;98.05
68508;BME280;55510;49.560;19.090;2022-11-21T20:08:21;95476.38;;;2.07;98.33
68508;BME280;55510;49.560;19.090;2022-11-21T20:11:25;95483.22;;;2.08;98.06
68508;BME280;55510;49.560;19.090;2022-11-21T20:14:26;95477.97;;;2.08;98.10
68508;BME280;55510;49.560;19.090;2022-11-21T20:17:27;95485.84;;;2.08;98.61
68508;BME280;55510;49.560;19.090;2022-11-21T20:20:27;95484.03;;;2.09;99.21
68508;BME280;55510;49.560;19.090;2022-11-21T20:23:28;95483.22;;;2.08;98.70
68508;BME280;55510;49.560;19.090;2022-11-21T20:26:28;95483.22;;;2.08;99.11
68508;BME280;55510;49.560;19.090;2022-11-21T20:29:29;95487.44;;;2.09;99.13
68508;BME280;55510;49.560;19.090;2022-11-21T20:32:30;95484.25;;;2.07;98.99
68508;BME280;55510;49.560;19.090;2022-11-21T20:35:32;95485.47;;;2.05;99.60
68508;BME280;55510;49.560;19.090;2022-11-21T20:38:35;95474.38;;;2.02;99.34
68508;BME280;55510;49.560;19.090;2022-11-21T20:41:36;95480.84;;;2.00;98.62
68508;BME280;55510;49.560;19.090;2022-11-21T20:44:37;95475.81;;;1.98;98.62
68508;BME280;55510;49.560;19.090;2022-11-21T20:47:38;95477.63;;;1.98;98.56
68508;BME280;55510;49.560;19.090;2022-11-21T20:50:39;95476.03;;;1.97;98.44
68508;BME280;55510;49.560;19.090;2022-11-21T20:53:39;95474.84;;;1.93;97.98
68508;BME280;55510;49.560;19.090;2022-11-21T20:56:40;95475.28;;;1.90;97.76
68508;BME280;55510;49.560;19.090;2022-11-21T20:59:41;95483.94;;;1.90;97.78
68508;BME280;55510;49.560;19.090;2022-11-21T21:02:42;95473.44;;;1.90;98.28
68508;BME280;55510;49.560;19.090;2022-11-21T21:05:43;95478.91;;;1.88;98.31
68508;BME280;55510;49.560;19.090;2022-11-21T21:08:45;95476.47;;;1.87;98.04
68508;BME280;55510;49.560;19.090;2022-11-21T21:11:47;95474.09;;;1.85;97.97
68508;BME280;55510;49.560;19.090;2022-11-21T21:14:47;95480.34;;;1.84;98.26
68508;BME280;55510;49.560;19.090;2022-11-21T21:17:48;95486.59;;;1.83;98.68
68508;BME280;55510;49.560;19.090;2022-11-21T21:20:48;95479.75;;;1.82;98.57
68508;BME280;55510;49.560;19.090;2022-11-21T21:24:09;95480.56;;;1.76;98.73
68508;BME280;55510;49.560;19.090;2022-11-21T21:27:10;95479.19;;;1.73;98.60
68508;BME280;55510;49.560;19.090;2022-11-21T21:30:11;95483.03;;;1.71;98.16
68508;BME280;55510;49.560;19.090;2022-11-21T21:33:12;95484.88;;;1.64;98.40
68508;BME280;55510;49.560;19.090;2022-11-21T21:36:18;95479.69;;;1.57;98.46
68508;BME280;55510;49.560;19.090;2022-11-21T21:39:18;95477.06;;;1.50;98.64
68508;BME280;55510;49.560;19.090;2022-11-21T21:42:19;95481.97;;;1.40;98.12
68508;BME280;55510;49.560;19.090;2022-11-21T21:45:20;95486.22;;;1.34;98.42
68508;BME280;55510;49.560;19.090;2022-11-21T21:48:20;95488.22;;;1.32;98.68
68508;BME280;55510;49.560;19.090;2022-11-21T21:51:26;95485.59;;;1.32;98.75
68508;BME280;55510;49.560;19.090;2022-11-21T21:54:27;95494.28;;;1.33;98.30
68508;BME280;55510;49.560;19.090;2022-11-21T21:57:28;95495.28;;;1.32;98.45
68508;BME280;55510;49.560;19.090;2022-11-21T22:00:29;95488.44;;;1.30;99.27
68508;BME280;55510;49.560;19.090;2022-11-21T22:03:30;95480.56;;;1.30;99.03
68508;BME280;55510;49.560;19.090;2022-11-21T22:06:32;95480.97;;;1.27;99.94
68508;BME280;55510;49.560;19.090;2022-11-21T22:09:32;95476.34;;;1.29;99.85
68508;BME280;55510;49.560;19.090;2022-11-21T22:12:33;95471.91;;;1.30;99.85
68508;BME280;55510;49.560;19.090;2022-11-21T22:15:34;95477.56;;;1.34;99.62
68508;BME280;55510;49.560;19.090;2022-11-21T22:18:35;95471.28;;;1.35;99.50
68508;BME280;55510;49.560;19.090;2022-11-21T22:21:36;95459.19;;;1.34;100.00
68508;BME280;55510;49.560;19.090;2022-11-21T22:24:37;95452.31;;;1.39;98.95
68508;BME280;55510;49.560;19.090;2022-11-21T22:27:38;95442.84;;;1.38;98.79
68508;BME280;55510;49.560;19.090;2022-11-21T22:30:39;95439.63;;;1.36;98.86
68508;BME280;55510;49.560;19.090;2022-11-21T22:33:41;95429.94;;;1.37;99.22
68508;BME280;55510;49.560;19.090;2022-11-21T22:36:42;95426.94;;;1.33;99.08
68508;BME280;55510;49.560;19.090;2022-11-21T22:39:43;95420.69;;;1.27;98.94
68508;BME280;55510;49.560;19.090;2022-11-21T22:42:44;95424.75;;;1.23;99.38
68508;BME280;55510;49.560;19.090;2022-11-21T22:45:45;95418.31;;;1.19;99.34
68508;BME280;55510;49.560;19.090;2022-11-21T22:48:47;95418.31;;;1.19;99.00
68508;BME280;55510;49.560;19.090;2022-11-21T22:51:47;95412.28;;;1.19;99.54
68508;BME280;55510;49.560;19.090;2022-11-21T22:54:48;95412.28;;;1.19;99.29
68508;BME280;55510;49.560;19.090;2022-11-21T22:57:49;95409.47;;;1.13;100.00
68508;BME280;55510;49.560;19.090;2022-11-21T23:00:49;95407.47;;;1.09;99.76
68508;BME280;55510;49.560;19.090;2022-11-21T23:03:50;95404.44;;;1.05;99.89
68508;BME280;55510;49.560;19.090;2022-11-21T23:06:51;95405.69;;;1.03;100.00
68508;BME280;55510;49.560;19.090;2022-11-21T23:09:52;95406.28;;;0.98;100.00
68508;BME280;55510;49.560;19.090;2022-11-21T23:12:53;95414.38;;;0.96;100.00
68508;BME280;55510;49.560;19.090;2022-11-21T23:15:53;95408.72;;;0.93;100.00
68508;BME280;55510;49.560;19.090;2022-11-21T23:18:54;95409.97;;;0.90;100.00
68508;BME280;55510;49.560;19.090;2022-11-21T23:21:55;95421.66;;;0.88;100.00
68508;BME280;55510;49.560;19.090;2022-11-21T23:24:56;95415.00;;;0.85;100.00
68508;BME280;55510;49.560;19.090;2022-11-21T23:27:57;95422.66;;;0.80;100.00
68508;BME280;55510;49.560;19.090;2022-11-21T23:31:01;95409.78;;;0.71;100.00
68508;BME280;55510;49.560;19.090;2022-11-21T23:34:01;95416.44;;;0.61;100.00
68508;BME280;55510;49.560;19.090;2022-11-21T23:37:02;95415.28;;;0.50;100.00
68508;BME280;55510;49.560;19.090;2022-11-21T23:40:03;95414.88;;;0.39;100.00
68508;BME280;55510;49.560;19.090;2022-11-21T23:43:04;95401.41;;;0.29;100.00
68508;BME280;55510;49.560;19.090;2022-11-21T23:46:05;95404.81;;;0.23;100.00
68508;BME280;55510;49.560;19.090;2022-11-21T23:49:06;95408.84;;;0.19;100.00
68508;BME280;55510;49.560;19.090;2022-11-21T23:52:06;95402.81;;;0.18;100.00
68508;BME280;55510;49.560;19.090;2022-11-21T23:55:07;95409.44;;;0.14;100.00
68508;BME280;55510;49.560;19.090;2022-11-21T23:58:08;95400.41;;;0.17;100.00
